createdAt,value
2023-02-15T00:03:24.440Z,100.00
2023-02-15T00:08:47.138Z,100.00
2023-02-15T00:14:09.503Z,100.00
2023-02-15T00:19:33.318Z,100.00
2023-02-15T00:24:55.578Z,100.00
2023-02-15T00:30:18.478Z,100.00
2023-02-15T00:35:40.871Z,100.00
2023-02-15T00:41:08.439Z,100.00
2023-02-15T00:46:30.905Z,100.00
2023-02-15T00:51:53.240Z,100.00
2023-02-15T00:57:18.726Z,100.00
2023-02-15T01:02:41.164Z,100.00
2023-02-15T01:08:04.295Z,100.00
2023-02-15T01:13:28.156Z,100.00
2023-02-15T01:18:50.794Z,100.00
2023-02-15T01:24:13.319Z,100.00
2023-02-15T01:29:36.489Z,100.00
2023-02-15T01:34:58.911Z,100.00
2023-02-15T01:40:25.589Z,100.00
2023-02-15T01:45:49.773Z,100.00
2023-02-15T01:51:15.362Z,100.00
2023-02-15T01:56:41.568Z,100.00
2023-02-15T02:02:06.310Z,100.00
2023-02-15T02:07:33.788Z,100.00
2023-02-15T02:13:00.463Z,100.00
2023-02-15T02:18:47.153Z,100.00
2023-02-15T02:24:37.947Z,100.00
2023-02-15T02:30:35.531Z,100.00
2023-02-15T02:36:36.229Z,100.00
2023-02-15T02:42:26.260Z,100.00
2023-02-15T02:48:23.619Z,100.00
2023-02-15T02:53:47.860Z,100.00
2023-02-15T02:59:23.606Z,100.00
2023-02-15T03:04:50.719Z,100.00
2023-02-15T03:10:16.589Z,100.00
2023-02-15T03:16:01.656Z,100.00
2023-02-15T03:21:28.884Z,100.00
2023-02-15T03:26:54.501Z,100.00
2023-02-15T03:32:20.198Z,100.00
2023-02-15T03:37:49.762Z,100.00
2023-02-15T03:43:28.932Z,100.00
2023-02-15T03:48:58.970Z,100.00
2023-02-15T04:00:48.330Z,100.00
2023-02-15T04:06:10.717Z,100.00
2023-02-15T04:11:33.026Z,100.00
2023-02-15T04:16:55.400Z,100.00
2023-02-15T04:22:36.296Z,100.00
2023-02-15T04:28:01.778Z,100.00
2023-02-15T04:33:24.186Z,100.00
2023-02-15T04:38:46.802Z,100.00
2023-02-15T04:44:09.189Z,100.00
2023-02-15T04:49:31.393Z,100.00
2023-02-15T04:54:53.991Z,100.00
2023-02-15T05:00:18.639Z,100.00
2023-02-15T05:05:41.754Z,100.00
2023-02-15T05:11:05.112Z,100.00
2023-02-15T05:16:29.280Z,100.00
2023-02-15T05:21:52.685Z,100.00
2023-02-15T05:27:33.331Z,100.00
2023-02-15T05:32:55.634Z,100.00
2023-02-15T05:38:18.487Z,100.00
2023-02-15T05:43:41.289Z,100.00
2023-02-15T05:49:03.576Z,100.00
2023-02-15T05:54:26.017Z,100.00
2023-02-15T05:59:48.373Z,100.00
2023-02-15T06:05:11.806Z,100.00
2023-02-15T06:10:34.369Z,100.00
2023-02-15T06:15:56.776Z,100.00
2023-02-15T06:21:19.143Z,100.00
2023-02-15T06:26:41.374Z,100.00
2023-02-15T06:32:03.649Z,100.00
2023-02-15T06:37:25.924Z,100.00
2023-02-15T06:42:51.857Z,100.00
2023-02-15T06:48:14.247Z,100.00
2023-02-15T06:53:37.200Z,100.00
2023-02-15T06:59:00.144Z,100.00
2023-02-15T07:04:23.280Z,100.00
2023-02-15T07:09:45.918Z,100.00
2023-02-15T07:15:08.936Z,100.00
2023-02-15T07:20:39.096Z,100.00
2023-02-15T07:26:07.713Z,100.00
2023-02-15T07:31:30.399Z,100.00
2023-02-15T07:36:53.360Z,100.00
2023-02-15T07:42:15.736Z,100.00
2023-02-15T07:47:38.024Z,100.00
2023-02-15T07:53:00.386Z,100.00
2023-02-15T07:58:24.458Z,100.00
2023-02-15T08:03:46.935Z,100.00
2023-02-15T08:09:13.621Z,100.00
2023-02-15T08:14:37.137Z,100.00
2023-02-15T08:20:00.049Z,100.00
2023-02-15T08:25:22.823Z,100.00
2023-02-15T08:30:45.098Z,100.00
2023-02-15T08:36:14.500Z,100.00
2023-02-15T08:41:46.246Z,100.00
2023-02-15T08:47:08.569Z,100.00
2023-02-15T08:52:31.278Z,100.00
2023-02-15T08:57:55.248Z,100.00
2023-02-15T09:03:17.628Z,100.00
2023-02-15T09:08:40.591Z,100.00
2023-02-15T09:14:05.672Z,100.00
2023-02-15T09:19:30.772Z,100.00
2023-02-15T09:24:53.145Z,100.00
2023-02-15T09:30:16.314Z,100.00
2023-02-15T09:35:38.718Z,100.00
2023-02-15T09:41:08.919Z,98.52
2023-02-15T09:46:51.152Z,92.98
2023-02-15T09:52:18.230Z,89.82
2023-02-15T09:57:48.100Z,87.68
2023-02-15T10:03:16.208Z,86.14
2023-02-15T10:08:49.067Z,85.17
2023-02-15T10:15:01.613Z,84.34
2023-02-15T10:20:48.499Z,82.89
2023-02-15T10:26:36.889Z,81.76
2023-02-15T10:32:31.877Z,81.89
2023-02-15T10:38:19.185Z,81.35
2023-02-15T10:44:07.247Z,80.85
2023-02-15T10:50:08.034Z,80.81
2023-02-15T10:55:38.158Z,81.08
2023-02-15T11:01:34.297Z,81.26
2023-02-15T11:07:01.170Z,80.97
2023-02-15T11:12:28.235Z,80.15
2023-02-15T11:17:55.422Z,79.85
2023-02-15T11:23:23.853Z,79.75
2023-02-15T11:28:56.957Z,79.89
2023-02-15T11:34:30.305Z,79.98
2023-02-15T11:39:55.598Z,79.33
2023-02-15T11:45:46.848Z,78.39
2023-02-15T11:51:10.198Z,77.42
2023-02-15T11:56:37.764Z,77.62
2023-02-15T12:02:02.596Z,78.36
2023-02-15T12:07:36.631Z,78.80
2023-02-15T12:13:17.422Z,79.28
2023-02-15T12:18:54.884Z,78.11
2023-02-15T12:24:30.134Z,77.56
2023-02-15T12:30:06.862Z,77.31
2023-02-15T12:35:41.901Z,77.22
2023-02-15T12:41:15.571Z,77.95
2023-02-15T12:46:47.414Z,78.00
2023-02-15T12:52:29.592Z,78.58
2023-02-15T12:57:52.538Z,78.67
2023-02-15T13:03:18.753Z,78.59
2023-02-15T13:08:48.376Z,77.77
2023-02-15T13:14:35.656Z,77.49
2023-02-15T13:20:06.462Z,77.84
2023-02-15T13:25:36.457Z,78.30
2023-02-15T13:30:54.667Z,78.08
2023-02-15T13:36:58.902Z,77.72
2023-02-15T13:43:09.148Z,77.71
2023-02-15T13:49:04.920Z,77.53
2023-02-15T13:54:53.186Z,77.49
2023-02-15T14:00:29.247Z,78.08
2023-02-15T14:06:24.410Z,78.29
2023-02-15T14:12:23.527Z,78.65
2023-02-15T14:18:10.075Z,78.68
2023-02-15T14:23:50.351Z,79.31
2023-02-15T14:29:09.663Z,79.30
2023-02-15T14:34:55.151Z,77.70
2023-02-15T14:40:52.898Z,77.88
2023-02-15T14:46:29.064Z,78.47
2023-02-15T14:52:06.694Z,79.50
2023-02-15T14:57:35.797Z,80.46
2023-02-15T15:03:03.628Z,81.00
2023-02-15T15:08:41.722Z,81.36
2023-02-15T15:14:18.858Z,81.46
2023-02-15T15:20:03.212Z,81.70
2023-02-15T15:25:53.896Z,81.96
2023-02-15T15:31:28.131Z,82.30
2023-02-15T15:43:09.900Z,83.42
2023-02-15T15:48:52.225Z,83.34
2023-02-15T15:54:24.600Z,83.78
2023-02-15T15:59:50.330Z,84.13
2023-02-15T16:05:22.799Z,84.41
2023-02-15T16:10:47.609Z,84.75
2023-02-15T16:16:12.022Z,85.13
2023-02-15T16:21:39.319Z,85.55
2023-02-15T16:27:26.185Z,85.83
2023-02-15T16:32:50.359Z,86.12
2023-02-15T16:38:15.773Z,86.42
2023-02-15T16:43:41.553Z,86.72
2023-02-15T16:49:08.544Z,87.15
2023-02-15T16:54:35.380Z,87.66
2023-02-15T17:00:15.382Z,88.13
2023-02-15T17:05:41.844Z,88.59
2023-02-15T17:11:23.947Z,88.94
2023-02-15T17:17:00.119Z,89.51
2023-02-15T17:22:30.731Z,90.37
2023-02-15T17:27:55.608Z,91.33
2023-02-15T17:33:30.344Z,92.22
2023-02-15T17:39:07.988Z,92.97
2023-02-15T17:44:30.350Z,93.73
2023-02-15T17:49:53.088Z,94.79
2023-02-15T17:55:38.769Z,95.54
2023-02-15T18:01:23.232Z,96.23
2023-02-15T18:07:06.329Z,97.04
2023-02-15T18:12:44.064Z,98.14
2023-02-15T18:18:06.954Z,99.34
2023-02-15T18:23:30.976Z,100.00
2023-02-15T18:28:53.375Z,100.00
2023-02-15T18:34:20.324Z,100.00
2023-02-15T18:39:49.722Z,100.00
2023-02-15T18:45:30.446Z,100.00
2023-02-15T18:50:54.250Z,100.00
2023-02-15T18:56:20.817Z,100.00
2023-02-15T19:01:43.666Z,100.00
2023-02-15T19:07:07.442Z,100.00
2023-02-15T19:12:31.454Z,100.00
2023-02-15T19:17:54.192Z,100.00
2023-02-15T19:23:20.757Z,100.00
2023-02-15T19:28:51.633Z,100.00
2023-02-15T19:34:19.977Z,100.00
2023-02-15T19:39:51.534Z,100.00
2023-02-15T19:45:18.186Z,100.00
2023-02-15T19:50:46.651Z,100.00
2023-02-15T19:56:09.355Z,100.00
2023-02-15T20:01:31.691Z,100.00
2023-02-15T20:06:54.419Z,100.00
2023-02-15T20:12:19.091Z,100.00
2023-02-15T20:17:41.706Z,100.00
2023-02-15T20:23:05.350Z,100.00
2023-02-15T20:28:32.109Z,100.00
2023-02-15T20:33:55.147Z,100.00
2023-02-15T20:39:29.584Z,100.00
2023-02-15T20:44:51.962Z,100.00
2023-02-15T20:50:14.304Z,100.00
2023-02-15T20:55:42.993Z,100.00
2023-02-15T21:01:06.483Z,100.00
2023-02-15T21:06:30.384Z,100.00
2023-02-15T21:11:52.876Z,100.00
2023-02-15T21:17:17.197Z,100.00
2023-02-15T21:22:41.492Z,100.00
2023-02-15T21:28:03.793Z,100.00
2023-02-15T21:33:26.528Z,100.00
2023-02-15T21:38:49.819Z,100.00
2023-02-15T21:44:40.305Z,100.00
2023-02-15T21:49:56.347Z,100.00
2023-02-15T21:55:21.176Z,100.00
2023-02-15T22:00:44.243Z,100.00
2023-02-15T22:06:06.622Z,100.00
2023-02-15T22:11:34.220Z,100.00
2023-02-15T22:16:56.659Z,100.00
2023-02-15T22:22:18.957Z,100.00
2023-02-15T22:27:45.165Z,100.00
2023-02-15T22:33:10.637Z,100.00
2023-02-15T22:38:32.339Z,100.00
2023-02-15T22:44:00.523Z,100.00
2023-02-15T22:49:25.040Z,100.00
2023-02-15T22:54:47.284Z,100.00
2023-02-15T23:00:11.079Z,100.00
2023-02-15T23:05:42.192Z,100.00
2023-02-15T23:11:07.542Z,100.00
2023-02-15T23:16:31.465Z,100.00
2023-02-15T23:21:55.901Z,100.00
2023-02-15T23:27:40.897Z,100.00
2023-02-15T23:33:04.780Z,100.00
2023-02-15T23:38:39.393Z,100.00
2023-02-15T23:44:10.501Z,100.00
2023-02-15T23:49:34.163Z,100.00
2023-02-15T23:54:56.398Z,100.00
